Terminal Aerodrome Forecast
Issued by NWS Caribou, ME

Home | Current Version | Previous Version | Text Only | Print | Product List | Glossary On
Versions: 1 2 3 4 5 6 7 8 9 10 11 12 13 14 15 16
000
FTUS41 KCAR 220545
TAFBGR
TAF
KBGR 220545Z 2206/2306 18005KT P6SM SCT004 BKN100
     FM221100 18006KT P6SM BKN030
     FM221500 23007KT P6SM VCSH SCT025 BKN035
     FM222200 29010G20KT P6SM BKN045
     FM230000 32007KT P6SM BKN100=

USA.gov is the U.S. government's official web portal to all federal, state and local government web resources and services.